Terminal Aerodrome Forecast
Issued by NWS

Home | Current Version | Previous Version | Text Only | Print | Product List | Glossary On
Versions: 1 2 3 4 5 6 7 8 9 10 11 12 13 14 15 16 17 18 19 20 21 22 23 24 25 26 27 28 29 30 31 32 33 34 35 36
000
FTAK31 PAJN 172326
TAFAKT
TAF
PAKT 172326Z 1800/1824 32006KT P6SM BKN150
     FM181900 12006KT 3SM -SN BR OVC030
     FM182100 12010KT P6SM -RA OVC025
     FM182300 13015G25KT P6SM -RA OVC015 WS020/15030KT
      AMD LTD TO CLD VIS AND WIND 1806/1815=

USA.gov is the U.S. government's official web portal to all federal, state and local government web resources and services.